Time;durP1;ratioP1;P1;durP2;ratioP2;P2;SDS_P1;SDS_P2;PMS_P1;PMS_P2;Temp;Humidity;BMP_temperature;BMP_pressure;BME280_temperature;BME280_humidity;BME280_pressure;Samples;Min_cycle;Max_cycle;Signal;HPM_P1;HPM_P2
2022/02/22 00:02:14;;;;;;;8.53;2.10;;;;;;;7.74;55.33;97393.63;8351003;28;20232;-68
2022/02/22 00:06:18;;;;;;;7.13;1.97;;;;;;;7.82;55.07;97416.50;8351893;28;20460;-68
2022/02/22 00:10:22;;;;;;;6.33;2.03;;;;;;;7.96;55.26;97424.50;8351396;28;20243;-68
2022/02/22 00:14:25;;;;;;;8.00;1.90;;;;;;;7.87;56.40;97440.38;8351488;28;20444;-68
2022/02/22 00:18:29;;;;;;;10.07;2.33;;;;;;;7.80;57.66;97447.50;8351467;28;20232;-68
2022/02/22 00:22:35;;;;;;;7.97;1.70;;;;;;;7.76;58.40;97442.56;8350678;28;20528;-68
2022/02/22 00:26:38;;;;;;;8.23;2.23;;;;;;;7.54;59.04;97440.84;8347842;28;20416;-68
2022/02/22 00:30:41;;;;;;;8.17;2.10;;;;;;;7.74;58.63;97459.81;8348844;28;20549;-68
2022/02/22 00:34:44;;;;;;;7.10;2.17;;;;;;;7.81;58.49;97480.13;8350536;28;20232;-68
2022/02/22 00:38:49;;;;;;;7.40;2.03;;;;;;;7.62;59.24;97477.47;8350957;28;20245;-68
2022/02/22 00:42:53;;;;;;;6.00;2.07;;;;;;;7.73;58.91;97476.16;8350734;28;20525;-68
2022/02/22 00:46:55;;;;;;;8.67;2.23;;;;;;;7.28;60.23;97472.81;8350588;28;20234;-68
2022/02/22 00:50:58;;;;;;;7.20;1.83;;;;;;;7.34;59.71;97477.72;8350624;28;20411;-68
2022/02/22 00:55:03;;;;;;;5.90;1.87;;;;;;;7.46;59.86;97480.69;8349349;28;20235;-68
2022/02/22 00:59:06;;;;;;;7.10;2.10;;;;;;;7.66;59.45;97483.31;8349415;28;20243;-68
2022/02/22 01:03:09;;;;;;;7.67;2.20;;;;;;;7.70;59.38;97490.03;8349363;28;20228;-68
2022/02/22 01:07:16;;;;;;;7.17;2.10;;;;;;;7.77;59.30;97495.78;8349179;28;20295;-68
2022/02/22 01:11:20;;;;;;;9.37;2.33;;;;;;;7.81;59.06;97500.75;8349260;28;20227;-68
2022/02/22 01:15:24;;;;;;;8.47;2.23;;;;;;;7.97;58.89;97507.84;8349306;28;20232;-68
2022/02/22 01:19:27;;;;;;;10.13;2.30;;;;;;;7.60;59.47;97514.50;8349054;28;20238;-68
2022/02/22 01:23:31;;;;;;;5.87;1.90;;;;;;;7.78;59.18;97512.91;8348760;28;20318;-69
2022/02/22 01:27:38;;;;;;;11.90;2.70;;;;;;;7.83;58.63;97523.91;8348837;28;20405;-68
2022/02/22 01:31:41;;;;;;;7.27;2.10;;;;;;;7.72;58.65;97523.47;8348694;28;20419;-68
2022/02/22 01:35:44;;;;;;;11.83;2.07;;;;;;;7.67;58.97;97523.66;8348902;28;20238;-68
2022/02/22 01:39:47;;;;;;;7.17;2.17;;;;;;;7.74;58.81;97527.66;8348804;28;20577;-68
2022/02/22 01:43:52;;;;;;;8.03;2.37;;;;;;;7.49;58.74;97529.53;8349108;28;20239;-68
2022/02/22 01:47:55;;;;;;;11.17;2.50;;;;;;;7.42;59.15;97527.22;8350275;28;20282;-68
2022/02/22 01:51:59;;;;;;;8.20;2.27;;;;;;;7.39;59.04;97524.75;8349938;28;20215;-68
2022/02/22 01:56:02;;;;;;;7.57;2.20;;;;;;;7.42;57.83;97524.63;8350381;28;20200;-68
2022/02/22 02:00:10;;;;;;;7.77;2.37;;;;;;;7.44;57.73;97551.19;8348738;28;20239;-68
2022/02/22 02:04:14;;;;;;;9.63;2.70;;;;;;;7.31;57.57;97556.84;8347681;28;20266;-68
2022/02/22 02:08:17;;;;;;;8.27;2.57;;;;;;;7.33;57.40;97558.47;8348030;28;20235;-68
2022/02/22 02:12:20;;;;;;;11.97;2.37;;;;;;;7.31;56.78;97556.84;8348066;28;20418;-68
2022/02/22 02:16:24;;;;;;;11.43;2.90;;;;;;;7.42;56.18;97567.56;8347821;28;20234;-68
2022/02/22 02:20:27;;;;;;;9.07;2.67;;;;;;;7.28;56.33;97569.84;8347528;28;20426;-68
2022/02/22 02:24:32;;;;;;;13.63;3.03;;;;;;;7.31;55.74;97588.59;8347692;28;20240;-70
2022/02/22 02:28:34;;;;;;;10.47;2.83;;;;;;;7.43;55.58;97593.28;8347011;28;20239;-68
2022/02/22 02:32:38;;;;;;;11.73;2.97;;;;;;;7.30;55.61;97597.22;8347306;28;20232;-68
2022/02/22 02:36:43;;;;;;;10.03;2.83;;;;;;;7.19;55.19;97594.19;8347621;28;20535;-68
2022/02/22 02:40:47;;;;;;;11.93;3.13;;;;;;;7.17;55.45;97616.59;8347259;28;20232;-68
2022/02/22 02:44:51;;;;;;;7.57;2.50;;;;;;;7.40;55.51;97620.91;8347543;28;20242;-68
2022/02/22 02:48:55;;;;;;;8.90;2.63;;;;;;;7.29;55.88;97629.03;8345919;28;20247;-68
2022/02/22 02:53:00;;;;;;;11.53;3.37;;;;;;;7.14;56.64;97640.72;8346821;28;20287;-68
2022/02/22 02:57:05;;;;;;;9.20;2.80;;;;;;;7.40;55.89;97654.38;8353332;28;20227;-68
2022/02/22 03:01:08;;;;;;;8.27;2.80;;;;;;;7.38;56.17;97669.06;8353316;28;20232;-68
2022/02/22 03:05:12;;;;;;;13.03;3.00;;;;;;;7.39;55.80;97673.34;8353171;28;20235;-68
2022/02/22 03:09:14;;;;;;;10.23;2.90;;;;;;;7.46;55.72;97691.97;8353115;28;20231;-68
2022/02/22 03:13:19;;;;;;;12.33;2.83;;;;;;;7.43;55.73;97698.91;8353138;28;20238;-68
2022/02/22 03:17:22;;;;;;;9.77;2.87;;;;;;;7.34;56.04;97717.28;8352682;28;20228;-68
2022/02/22 03:21:25;;;;;;;15.87;3.23;;;;;;;7.40;55.28;97699.03;8352518;28;20431;-68
2022/02/22 03:25:28;;;;;;;12.07;2.83;;;;;;;7.48;55.17;97705.63;8352420;28;20228;-68
2022/02/22 03:29:32;;;;;;;14.87;3.57;;;;;;;7.35;55.29;97720.69;8344186;28;20232;-70
2022/02/22 03:33:35;;;;;;;10.30;3.20;;;;;;;7.39;54.58;97717.13;8352089;28;20240;-68
2022/02/22 03:37:38;;;;;;;11.47;3.47;;;;;;;7.29;54.47;97734.66;8352578;28;20247;-68
2022/02/22 03:41:41;;;;;;;13.33;4.10;;;;;;;7.35;54.45;97739.59;8351976;28;20251;-68
2022/02/22 03:45:45;;;;;;;17.93;3.77;;;;;;;7.16;54.78;97757.41;8352144;28;20243;-68
2022/02/22 03:49:48;;;;;;;11.67;3.77;;;;;;;7.26;54.88;97775.13;8352312;28;20240;-68
2022/02/22 03:53:51;;;;;;;12.17;3.47;;;;;;;7.28;54.88;97763.88;8351653;28;20348;-68
2022/02/22 03:57:54;;;;;;;18.70;3.77;;;;;;;7.27;54.77;97777.63;8351285;28;20239;-68
2022/02/22 04:02:02;;;;;;;13.20;3.57;;;;;;;7.20;54.57;97777.00;8351221;28;20236;-68
2022/02/22 04:06:05;;;;;;;11.50;3.03;;;;;;;7.07;55.05;97793.75;8350934;28;20236;-68
2022/02/22 04:10:10;;;;;;;20.20;4.80;;;;;;;7.24;54.42;97793.19;8351456;28;20687;-68
2022/02/22 04:14:13;;;;;;;11.27;3.40;;;;;;;7.28;54.58;97804.25;8351332;28;20423;-68
2022/02/22 04:18:17;;;;;;;16.13;4.40;;;;;;;7.15;54.55;97814.09;8351195;28;20224;-68
2022/02/22 04:22:20;;;;;;;14.67;4.30;;;;;;;7.19;54.13;97815.69;8350848;28;20235;-68
2022/02/22 04:26:24;;;;;;;13.67;3.90;;;;;;;7.38;54.02;97827.06;8350639;28;20240;-68
2022/02/22 04:30:27;;;;;;;14.13;3.43;;;;;;;7.27;54.17;97838.63;8350975;28;20243;-68
2022/02/22 04:34:36;;;;;;;14.40;3.70;;;;;;;7.50;53.93;97845.56;8350300;28;20228;-68
2022/02/22 04:38:39;;;;;;;15.97;3.50;;;;;;;7.37;54.59;97843.41;8350617;28;20408;-68
2022/02/22 04:42:46;;;;;;;14.80;4.10;;;;;;;7.36;54.60;97853.78;8350460;28;20240;-69
2022/02/22 04:46:49;;;;;;;14.80;3.60;;;;;;;7.38;54.44;97857.97;8350016;28;20240;-68
2022/02/22 04:50:57;;;;;;;15.33;3.77;;;;;;;7.51;54.31;97865.31;8350300;28;20402;-68
2022/02/22 04:55:01;;;;;;;14.87;3.33;;;;;;;7.42;54.32;97876.75;8349984;28;20239;-68
2022/02/22 04:59:04;;;;;;;11.90;3.60;;;;;;;7.18;55.01;97874.09;8350026;28;20527;-68
2022/02/22 05:03:07;;;;;;;14.83;4.03;;;;;;;7.33;54.10;97882.19;8350060;28;20231;-68
2022/02/22 05:07:11;;;;;;;14.17;3.60;;;;;;;7.36;54.00;97890.66;8350237;28;20228;-68
2022/02/22 05:11:14;;;;;;;15.60;3.33;;;;;;;7.19;55.00;97895.53;8349387;28;20236;-68
2022/02/22 05:15:18;;;;;;;15.93;4.03;;;;;;;7.51;53.78;97884.19;8349684;28;20228;-68
2022/02/22 05:19:20;;;;;;;17.70;4.07;;;;;;;7.43;53.28;97891.31;8349056;28;20224;-68
2022/02/22 05:23:26;;;;;;;18.80;4.17;;;;;;;7.30;53.41;97896.03;8349751;28;20254;-68
2022/02/22 05:27:29;;;;;;;15.43;4.10;;;;;;;7.35;53.48;97903.59;8348835;28;20243;-68
2022/02/22 05:31:32;;;;;;;14.30;4.07;;;;;;;7.28;53.77;97913.28;8348746;28;20421;-68
2022/02/22 05:35:35;;;;;;;15.80;3.83;;;;;;;7.18;53.67;97917.03;8348562;28;20561;-69
2022/02/22 05:39:39;;;;;;;17.20;4.53;;;;;;;6.93;54.80;97919.50;8348462;28;20236;-68
2022/02/22 05:43:46;;;;;;;16.63;4.13;;;;;;;6.92;54.68;97923.00;8348673;28;20232;-68
2022/02/22 05:47:49;;;;;;;19.67;4.83;;;;;;;7.03;54.45;97932.06;8347368;28;20412;-69
2022/02/22 05:51:54;;;;;;;17.10;4.33;;;;;;;7.11;54.33;97944.69;8347825;28;20228;-68
2022/02/22 05:56:00;;;;;;;13.97;4.20;;;;;;;6.79;55.23;97950.81;8347914;28;20234;-68
2022/02/22 06:00:04;;;;;;;15.60;3.93;;;;;;;6.92;54.78;97962.44;8348003;28;20559;-68
2022/02/22 06:04:08;;;;;;;16.57;4.00;;;;;;;6.84;55.69;97975.53;8346829;28;20224;-68
2022/02/22 06:08:11;;;;;;;16.83;4.20;;;;;;;7.01;55.58;97987.09;8346557;28;20228;-68
2022/02/22 06:12:15;;;;;;;16.10;4.40;;;;;;;6.97;55.58;97996.63;8344490;28;20239;-68
2022/02/22 06:16:19;;;;;;;16.50;5.10;;;;;;;7.04;55.32;97995.56;8346872;28;20224;-68
2022/02/22 06:20:22;;;;;;;13.87;4.13;;;;;;;7.29;55.02;98010.28;8345849;28;20239;-69
2022/02/22 06:24:25;;;;;;;17.97;4.60;;;;;;;7.37;54.54;98010.88;8347942;28;20247;-69
2022/02/22 06:28:30;;;;;;;20.30;4.90;;;;;;;7.40;54.18;98005.63;8350101;28;20430;-68
2022/02/22 06:32:33;;;;;;;21.63;4.90;;;;;;;7.35;54.31;98019.53;8353798;28;20243;-69
2022/02/22 06:36:36;;;;;;;20.70;5.27;;;;;;;7.40;54.50;98018.50;8354304;28;20537;-69
2022/02/22 06:40:38;;;;;;;21.10;4.73;;;;;;;7.36;54.80;98034.94;8354297;28;20240;-69
2022/02/22 06:44:43;;;;;;;15.90;4.63;;;;;;;7.36;55.08;98040.09;8354363;28;20231;-69
2022/02/22 06:48:46;;;;;;;14.80;4.63;;;;;;;7.69;54.30;98050.28;8353729;28;20270;-69
2022/02/22 06:52:48;;;;;;;19.67;4.77;;;;;;;7.83;53.78;98055.81;8353849;28;20236;-69
2022/02/22 06:56:51;;;;;;;18.73;4.93;;;;;;;8.32;53.01;98050.81;8354004;28;20239;-68
2022/02/22 07:00:58;;;;;;;16.60;4.57;;;;;;;8.39;52.31;98066.91;8353423;28;20238;-69
2022/02/22 07:05:04;;;;;;;23.17;4.70;;;;;;;8.67;51.20;98064.25;8353393;28;20228;-69
2022/02/22 07:09:08;;;;;;;22.27;4.60;;;;;;;8.67;51.37;98077.16;8353070;28;20228;-68
2022/02/22 07:13:11;;;;;;;12.23;3.53;;;;;;;8.80;51.48;98075.00;8352927;28;20236;-69
2022/02/22 07:17:16;;;;;;;17.40;4.43;;;;;;;8.90;51.05;98086.69;8353088;28;20243;-69
2022/02/22 07:21:19;;;;;;;21.47;4.87;;;;;;;9.04;50.99;98099.09;8352614;28;20228;-69
2022/02/22 07:25:25;;;;;;;17.90;4.97;;;;;;;8.69;52.04;98103.78;8352687;28;20230;-69
2022/02/22 07:29:30;;;;;;;18.40;4.60;;;;;;;9.01;51.58;98109.56;8352643;28;20232;-69
2022/02/22 07:33:34;;;;;;;23.43;5.30;;;;;;;8.60;52.13;98117.00;8351680;28;20232;-69
2022/02/22 07:37:37;;;;;;;18.80;5.00;;;;;;;8.99;50.81;98122.53;8352108;28;20265;-69
2022/02/22 07:41:41;;;;;;;19.17;4.83;;;;;;;8.93;50.81;98114.13;8351322;28;20236;-69
2022/02/22 07:45:44;;;;;;;20.07;5.30;;;;;;;9.29;50.59;98121.47;8351962;28;20236;-69
2022/02/22 07:49:48;;;;;;;22.03;4.77;;;;;;;9.08;50.54;98128.25;8351854;28;20232;-69
2022/02/22 07:53:59;;;;;;;22.20;5.20;;;;;;;8.93;51.61;98153.75;8351482;28;20426;-69
2022/02/22 07:58:03;;;;;;;17.63;5.00;;;;;;;8.55;52.40;98163.63;8351582;28;20250;-69
2022/02/22 08:02:06;;;;;;;22.13;5.93;;;;;;;8.76;52.49;98171.56;8351405;28;20236;-69
2022/02/22 08:06:13;;;;;;;23.90;5.77;;;;;;;8.66;52.23;98171.00;8351479;28;20538;-69
2022/02/22 08:10:16;;;;;;;19.13;5.27;;;;;;;8.57;52.75;98187.66;8351502;28;20231;-69
2022/02/22 08:14:19;;;;;;;27.77;5.67;;;;;;;8.46;52.95;98199.22;8351389;28;20236;-69
2022/02/22 08:18:22;;;;;;;23.10;5.23;;;;;;;8.32;53.11;98197.88;8351286;28;20228;-68
2022/02/22 08:22:28;;;;;;;25.20;5.63;;;;;;;8.69;52.87;98206.22;8351116;28;20231;-69
2022/02/22 08:26:31;;;;;;;24.50;6.13;;;;;;;8.83;52.31;98214.34;8350436;28;20232;-69
2022/02/22 08:30:36;;;;;;;20.17;5.10;;;;;;;8.69;52.09;98217.38;8350846;28;20239;-69
2022/02/22 08:34:39;;;;;;;20.57;5.10;;;;;;;8.85;52.31;98222.88;8350931;28;20235;-69
2022/02/22 08:38:44;;;;;;;22.47;5.60;;;;;;;8.78;51.96;98221.41;8350162;28;20239;-68
2022/02/22 08:42:47;;;;;;;17.23;4.43;;;;;;;8.82;52.03;98224.75;8350379;28;20240;-69
2022/02/22 08:46:57;;;;;;;17.83;4.93;;;;;;;9.20;50.60;98232.03;8350117;28;20228;-69
2022/02/22 08:51:03;;;;;;;17.47;4.47;;;;;;;9.38;50.10;98235.69;8348687;28;20435;-69
2022/02/22 08:55:08;;;;;;;17.63;4.73;;;;;;;9.45;50.03;98238.09;8349670;28;20238;-69
2022/02/22 08:59:15;;;;;;;19.87;5.30;;;;;;;9.75;48.95;98236.13;8349904;28;20545;-69
2022/02/22 09:03:18;;;;;;;19.97;4.67;;;;;;;9.38;50.20;98246.03;8349833;28;20244;-69
2022/02/22 09:07:21;;;;;;;19.80;5.00;;;;;;;9.90;48.10;98248.50;8347919;28;20228;-69
2022/02/22 09:11:25;;;;;;;14.07;4.67;;;;;;;9.88;48.28;98250.31;8349460;28;20238;-67
2022/02/22 09:15:31;;;;;;;16.13;4.40;;;;;;;9.72;47.78;98251.75;8349300;28;20232;-68
2022/02/22 09:19:34;;;;;;;16.03;4.43;;;;;;;9.51;48.58;98258.53;8349046;28;20234;-68
2022/02/22 09:23:38;;;;;;;19.00;4.50;;;;;;;9.94;48.20;98273.34;8349040;28;20236;-67
2022/02/22 09:27:44;;;;;;;19.43;4.73;;;;;;;10.73;45.72;98270.38;8348866;28;20662;-67
2022/02/22 09:31:53;;;;;;;19.33;4.90;;;;;;;10.14;46.26;98270.00;8348972;28;20266;-67
2022/02/22 09:35:56;;;;;;;21.27;4.83;;;;;;;10.03;46.24;98271.31;8349152;28;20291;-67
2022/02/22 09:39:59;;;;;;;20.03;5.23;;;;;;;9.81;47.36;98274.72;8349217;28;20250;-67
2022/02/22 09:44:05;;;;;;;18.03;4.30;;;;;;;9.36;47.13;98291.78;8348838;28;20601;-68
2022/02/22 09:48:08;;;;;;;20.07;4.83;;;;;;;9.37;47.87;98300.38;8348531;28;20631;-68
2022/02/22 09:52:11;;;;;;;21.30;5.23;;;;;;;9.58;47.00;98297.06;8348518;28;20235;-68
2022/02/22 09:56:14;;;;;;;14.97;4.57;;;;;;;9.27;46.73;98305.03;8348549;28;20250;-69
2022/02/22 10:00:20;;;;;;;23.27;5.03;;;;;;;11.58;61.27;98304.00;8348193;28;20234;-72
2022/02/22 10:04:24;;;;;;;16.70;4.40;;;;;;;11.65;44.96;98292.47;8347910;28;20525;-67
2022/02/22 10:08:29;;;;;;;19.87;4.93;;;;;;;12.09;42.67;98291.44;8348095;28;20247;-67
2022/02/22 10:12:35;;;;;;;18.33;4.73;;;;;;;11.47;41.71;98288.06;8347518;28;20227;-67
2022/02/22 10:16:41;;;;;;;13.03;4.23;;;;;;;10.83;43.33;98294.16;8347395;28;20287;-66
2022/02/22 10:20:55;;;;;;;19.50;4.87;;;;;;;10.16;45.54;98301.00;8347711;28;20238;-69
2022/02/22 10:25:06;;;;;;;19.67;4.53;;;;;;;9.54;47.24;98290.31;8347650;28;20254;-68
2022/02/22 10:29:13;;;;;;;17.63;4.97;;;;;;;10.03;46.32;98297.19;8347050;28;20335;-67
2022/02/22 10:33:19;;;;;;;18.80;4.47;;;;;;;10.13;44.65;98283.88;8347681;28;20294;-67
2022/02/22 10:37:32;;;;;;;17.97;4.77;;;;;;;10.29;44.24;98284.13;8347173;28;20278;-67
2022/02/22 10:41:36;;;;;;;13.83;3.97;;;;;;;10.16;43.19;98286.31;8346532;28;20549;-67
2022/02/22 10:45:39;;;;;;;15.87;3.93;;;;;;;11.59;41.50;98289.28;8347105;28;20236;-67
2022/02/22 10:49:44;;;;;;;13.90;3.93;;;;;;;11.70;40.61;98281.88;8346948;28;20232;-68
2022/02/22 10:53:48;;;;;;;16.53;4.77;;;;;;;11.55;41.20;98285.97;8346910;28;20259;-67
2022/02/22 10:57:53;;;;;;;16.30;4.30;;;;;;;11.53;40.20;98280.84;8347257;28;20240;-67
2022/02/22 11:01:58;;;;;;;13.43;3.60;;;;;;;11.76;39.80;98279.00;8346607;28;20538;-66
2022/02/22 11:06:04;;;;;;;20.80;4.40;;;;;;;12.19;38.71;98271.94;8346972;28;20235;-67
2022/02/22 11:10:09;;;;;;;18.23;4.70;;;;;;;11.49;39.22;98276.72;8346672;28;20455;-67
2022/02/22 11:14:17;;;;;;;15.73;3.97;;;;;;;11.59;39.03;98268.53;8347253;28;20251;-67
2022/02/22 11:18:21;;;;;;;9.87;3.50;;;;;;;11.38;37.96;98276.31;8353225;28;20232;-68
2022/02/22 11:22:26;;;;;;;13.67;3.60;;;;;;;11.44;37.88;98277.81;8352829;28;20236;-66
2022/02/22 11:26:44;;;;;;;14.90;3.63;;;;;;;11.50;38.28;98278.41;8351942;28;20440;-67
2022/02/22 11:30:48;;;;;;;13.37;3.57;;;;;;;11.47;38.90;98288.06;8349597;28;20228;-67
2022/02/22 11:34:54;;;;;;;22.23;4.33;;;;;;;11.45;38.59;98277.75;8351722;28;20235;-68
2022/02/22 11:38:58;;;;;;;15.27;4.23;;;;;;;11.46;38.85;98276.00;8351601;28;20228;-67
2022/02/22 11:43:08;;;;;;;13.83;3.73;;;;;;;11.32;38.64;98279.19;8348858;28;20232;-67
2022/02/22 11:47:16;;;;;;;13.73;3.87;;;;;;;10.99;39.13;98279.69;8351211;28;20423;-67
2022/02/22 11:51:19;;;;;;;13.53;3.63;;;;;;;11.14;38.99;98283.41;8351015;28;20224;-68
2022/02/22 11:55:27;;;;;;;12.30;3.70;;;;;;;11.62;38.67;98278.78;8350495;28;20224;-67
2022/02/22 11:59:32;;;;;;;11.80;3.67;;;;;;;11.18;38.74;98277.19;8348559;28;20231;-66
2022/02/22 12:03:42;;;;;;;16.03;4.30;;;;;;;11.25;38.26;98291.59;8350012;28;20435;-67
2022/02/22 12:07:45;;;;;;;15.30;3.70;;;;;;;11.20;38.09;98279.72;8350415;28;20232;-66
2022/02/22 12:11:50;;;;;;;10.40;3.73;;;;;;;11.38;37.67;98302.25;8348037;28;20228;-67
2022/02/22 12:15:53;;;;;;;12.23;2.93;;;;;;;11.26;37.58;98300.19;8350383;28;20436;-66
2022/02/22 12:19:56;;;;;;;11.27;3.00;;;;;;;10.95;37.90;98309.22;8350507;28;20240;-66
2022/02/22 12:24:01;;;;;;;11.10;3.10;;;;;;;10.90;38.60;98306.81;8350883;28;20243;-66
2022/02/22 12:28:06;;;;;;;10.90;3.30;;;;;;;10.68;39.74;98312.00;8350515;28;20239;-67
2022/02/22 12:32:09;;;;;;;12.50;3.30;;;;;;;10.63;40.22;98308.75;8350949;28;20415;-66
2022/02/22 12:36:14;;;;;;;12.33;3.40;;;;;;;10.52;39.95;98323.88;8350355;28;20227;-66
2022/02/22 12:40:19;;;;;;;11.07;3.00;;;;;;;10.97;39.70;98317.78;8350759;28;20423;-66
2022/02/22 12:44:25;;;;;;;9.90;3.10;;;;;;;10.52;41.22;98318.69;8350184;28;20231;-66
2022/02/22 12:48:28;;;;;;;8.73;2.80;;;;;;;10.90;40.83;98309.41;8350195;28;20297;-65
2022/02/22 12:52:31;;;;;;;11.50;3.10;;;;;;;10.82;40.59;98315.81;8341501;28;20523;-66
2022/02/22 12:56:53;;;;;;;9.93;2.83;;;;;;;10.67;40.53;98309.47;8349926;28;20407;-66
2022/02/22 13:01:10;;;;;;;13.20;3.20;;;;;;;10.97;40.13;98304.81;8349811;28;20431;-66
2022/02/22 13:05:18;;;;;;;9.53;2.70;;;;;;;10.92;40.42;98296.38;8349626;28;20241;-66
2022/02/22 13:09:29;;;;;;;8.40;2.73;;;;;;;10.88;40.55;98307.78;8349910;28;20257;-67
2022/02/22 13:13:32;;;;;;;9.07;2.80;;;;;;;10.84;41.22;98298.44;8348812;28;20295;-66
2022/02/22 13:17:36;;;;;;;9.67;2.87;;;;;;;11.18;41.05;98279.78;8349369;28;20232;-66
2022/02/22 13:21:41;;;;;;;11.23;2.80;;;;;;;11.37;40.79;98259.09;8349004;28;20238;-65
2022/02/22 13:25:45;;;;;;;10.80;3.03;;;;;;;11.20;41.52;98254.63;8348746;28;20243;-66
2022/02/22 13:30:10;;;;;;;11.37;3.00;;;;;;;11.33;41.67;98257.56;8348671;28;20231;-65
2022/02/22 13:34:16;;;;;;;8.80;2.30;;;;;;;11.58;41.17;98248.72;8348700;28;20647;-66
2022/02/22 13:38:20;;;;;;;8.67;2.53;;;;;;;11.81;40.91;98252.88;8315364;28;20228;-66
2022/02/22 13:42:25;;;;;;;9.07;2.57;;;;;;;11.92;40.97;98241.13;8315701;28;20562;-65
2022/02/22 13:46:32;;;;;;;8.83;2.77;;;;;;;11.78;41.51;98243.47;8315473;28;20236;-66
2022/02/22 13:50:37;;;;;;;6.83;2.33;;;;;;;11.91;40.35;98239.44;8314555;28;20229;-66
2022/02/22 13:54:47;;;;;;;7.70;2.47;;;;;;;11.72;40.79;98238.53;8315337;28;20237;-65
2022/02/22 13:58:50;;;;;;;6.60;2.30;;;;;;;12.20;40.54;98237.25;8315910;28;20602;-63
2022/02/22 14:03:06;;;;;;;7.37;2.00;;;;;;;11.67;41.32;98232.72;8315817;28;20233;-64
2022/02/22 14:07:11;;;;;;;8.07;2.37;;;;;;;11.71;41.64;98231.69;8315274;28;20238;-69
2022/02/22 14:11:14;;;;;;;5.07;2.10;;;;;;;11.40;42.54;98243.38;8332121;28;20227;-69
2022/02/22 14:15:17;;;;;;;7.07;2.13;;;;;;;11.35;42.72;98227.22;8347890;28;20313;-69
2022/02/22 14:19:20;;;;;;;8.87;2.83;;;;;;;11.53;42.89;98241.94;8347901;28;20234;-69
2022/02/22 14:23:26;;;;;;;8.43;2.43;;;;;;;11.33;43.52;98234.22;8347701;28;20243;-70
2022/02/22 14:27:35;;;;;;;6.33;2.40;;;;;;;11.31;43.83;98231.69;8346892;28;20254;-70
2022/02/22 14:31:38;;;;;;;10.80;2.67;;;;;;;11.29;44.54;98230.03;8348136;28;21072;-68
2022/02/22 14:35:41;;;;;;;8.13;2.83;;;;;;;11.19;44.73;98226.16;8347676;28;20275;-68
2022/02/22 14:39:46;;;;;;;8.73;2.90;;;;;;;11.16;45.65;98219.38;8347748;28;20239;-69
2022/02/22 14:43:51;;;;;;;7.50;3.33;;;;;;;11.14;45.99;98205.66;8347651;28;20239;-69
2022/02/22 14:47:54;;;;;;;11.03;3.50;;;;;;;11.05;46.30;98209.47;8347495;28;20235;-69
2022/02/22 14:51:57;;;;;;;9.53;3.20;;;;;;;10.99;46.83;98188.16;8351768;28;20236;-69
2022/02/22 14:56:03;;;;;;;10.37;3.73;;;;;;;11.13;46.62;98178.03;8353386;28;20550;-69
2022/02/22 15:00:08;;;;;;;12.13;3.87;;;;;;;11.03;47.44;98166.38;8353865;28;20570;-69
2022/02/22 15:04:14;;;;;;;13.40;3.90;;;;;;;10.85;47.78;98161.09;8353245;28;20239;-70
2022/02/22 15:08:17;;;;;;;15.53;4.20;;;;;;;11.00;47.92;98177.69;8353181;28;20228;-70
2022/02/22 15:12:21;;;;;;;17.10;4.87;;;;;;;10.96;48.02;98191.69;8353149;28;20228;-70
2022/02/22 15:16:24;;;;;;;15.43;4.07;;;;;;;10.88;48.31;98173.88;8353077;28;20396;-69
2022/02/22 15:20:27;;;;;;;14.77;4.70;;;;;;;10.93;47.72;98171.97;8352489;28;20239;-69
2022/02/22 15:24:30;;;;;;;15.77;4.50;;;;;;;10.80;48.00;98185.50;8352582;28;20433;-71
2022/02/22 15:28:36;;;;;;;19.63;5.87;;;;;;;10.97;47.71;98172.66;8352143;28;20635;-70
2022/02/22 15:32:39;;;;;;;19.93;5.40;;;;;;;10.57;48.49;98166.56;8352735;28;20236;-70
2022/02/22 15:36:42;;;;;;;17.70;4.80;;;;;;;10.73;48.20;98185.72;8352328;28;20240;-70
2022/02/22 15:40:46;;;;;;;19.00;4.90;;;;;;;10.79;47.81;98183.81;8352341;28;20239;-71
2022/02/22 15:44:53;;;;;;;16.57;4.97;;;;;;;10.80;47.88;98164.78;8352667;28;20597;-70
2022/02/22 15:48:56;;;;;;;15.93;4.93;;;;;;;10.70;48.04;98164.28;8352064;28;20228;-70
2022/02/22 15:53:00;;;;;;;15.90;4.83;;;;;;;10.73;48.28;98161.59;8351913;28;20224;-70
2022/02/22 15:57:03;;;;;;;19.80;5.77;;;;;;;10.53;50.89;98149.47;8351631;28;20228;-71
2022/02/22 16:01:08;;;;;;;21.50;6.37;;;;;;;10.47;51.31;98149.69;8351472;28;20225;-71
2022/02/22 16:05:11;;;;;;;20.77;5.63;;;;;;;10.42;51.85;98131.78;8351699;28;20254;-64
2022/02/22 16:09:18;;;;;;;20.57;5.30;;;;;;;10.20;53.03;98125.75;8351455;28;20236;-64
2022/02/22 16:13:21;;;;;;;17.00;4.93;;;;;;;10.39;52.83;98118.13;8351064;28;20251;-63
2022/02/22 16:17:26;;;;;;;20.73;5.83;;;;;;;10.46;52.90;98137.69;8351120;28;20228;-64
2022/02/22 16:21:29;;;;;;;22.03;5.90;;;;;;;10.34;53.32;98157.97;8349471;28;20224;-64
2022/02/22 16:25:32;;;;;;;19.30;5.70;;;;;;;10.43;53.28;98161.94;8346838;28;20236;-64
2022/02/22 16:29:35;;;;;;;25.83;7.00;;;;;;;10.26;53.88;98147.06;8349277;28;20232;-63
2022/02/22 16:33:40;;;;;;;19.00;5.93;;;;;;;10.10;54.29;98131.28;8349694;28;20232;-64
2022/02/22 16:37:44;;;;;;;29.20;10.50;;;;;;;10.05;53.89;98130.66;8349386;28;20235;-64
2022/02/22 16:41:47;;;;;;;28.30;13.30;;;;;;;10.07;54.60;98127.97;8348677;28;20227;-64
2022/02/22 16:45:50;;;;;;;26.07;13.10;;;;;;;10.09;54.49;98124.44;8349667;28;20243;-64
2022/02/22 16:49:54;;;;;;;25.80;12.57;;;;;;;10.22;54.13;98121.34;8346114;28;20416;-64
2022/02/22 16:53:58;;;;;;;19.70;7.17;;;;;;;9.99;55.00;98123.13;8349906;28;20562;-65
2022/02/22 16:58:01;;;;;;;22.90;8.50;;;;;;;10.10;54.58;98125.28;8349771;28;20228;-64
2022/02/22 17:02:08;;;;;;;22.35;6.90;;;;;;;10.39;53.93;98118.13;8349064;28;20749;-71
2022/02/22 17:06:13;;;;;;;17.73;5.10;;;;;;;10.07;55.66;98133.16;8348640;28;20236;-69
2022/02/22 17:10:16;;;;;;;16.90;4.97;;;;;;;10.00;56.23;98136.91;8349128;28;20236;-70
2022/02/22 17:14:19;;;;;;;18.37;5.30;;;;;;;10.08;55.85;98127.94;8348700;28;20254;-70
2022/02/22 17:18:22;;;;;;;18.90;5.83;;;;;;;9.92;56.60;98130.28;8349392;28;20427;-70
2022/02/22 17:22:26;;;;;;;17.47;4.83;;;;;;;10.11;55.28;98124.38;8349233;28;20232;-68
2022/02/22 17:26:30;;;;;;;18.20;5.63;;;;;;;10.04;55.37;98130.72;8348139;28;20236;-69
2022/02/22 17:30:33;;;;;;;18.30;5.70;;;;;;;10.05;55.64;98137.56;8348711;28;20228;-68
2022/02/22 17:34:36;;;;;;;20.53;5.57;;;;;;;10.02;55.06;98143.69;8348129;28;21484;-66
2022/02/22 17:38:41;;;;;;;18.27;5.47;;;;;;;10.02;55.96;98146.28;8348478;28;20240;-68
2022/02/22 17:42:47;;;;;;;14.83;4.57;;;;;;;9.48;58.60;98165.56;8348535;28;20421;-68
2022/02/22 17:46:51;;;;;;;17.87;5.03;;;;;;;9.42;60.19;98143.38;8348237;28;20243;-67
2022/02/22 17:50:53;;;;;;;13.67;4.33;;;;;;;9.70;60.11;98148.38;8348567;28;20526;-68
2022/02/22 17:54:58;;;;;;;13.90;4.50;;;;;;;9.46;60.64;98155.31;8348771;28;20228;-68
2022/02/22 17:59:04;;;;;;;14.70;3.93;;;;;;;9.11;61.56;98148.81;8347880;28;20309;-67
2022/02/22 18:03:06;;;;;;;10.40;4.07;;;;;;;9.04;62.53;98134.44;8347943;28;20231;-65
2022/02/22 18:07:10;;;;;;;12.00;3.90;;;;;;;9.25;61.99;98131.06;8347770;28;20286;-66
2022/02/22 18:11:14;;;;;;;11.57;3.97;;;;;;;9.09;62.43;98135.94;8347911;28;20231;-65
2022/02/22 18:15:18;;;;;;;11.33;3.90;;;;;;;9.19;62.23;98133.88;8347594;28;20228;-66
2022/02/22 18:19:22;;;;;;;15.20;4.33;;;;;;;9.04;62.50;98116.34;8347868;28;20235;-65
2022/02/22 18:23:25;;;;;;;12.03;4.83;;;;;;;9.29;62.11;98112.00;8346579;28;20425;-65
2022/02/22 18:27:29;;;;;;;14.33;4.67;;;;;;;9.13;62.24;98116.84;8346756;28;20235;-66
2022/02/22 18:31:35;;;;;;;13.70;4.43;;;;;;;9.28;61.37;98110.28;8346883;28;20232;-65
2022/02/22 18:35:38;;;;;;;13.20;4.80;;;;;;;9.28;61.58;98106.88;8345600;28;20287;-68
2022/02/22 18:39:41;;;;;;;11.97;4.30;;;;;;;9.03;61.67;98102.59;8338943;28;20231;-67
2022/02/22 18:43:47;;;;;;;12.60;4.70;;;;;;;9.30;60.79;98102.50;8347223;28;20236;-67
2022/02/22 18:47:53;;;;;;;14.00;4.63;;;;;;;9.06;61.43;98099.88;8346871;28;20228;-67
2022/02/22 18:51:57;;;;;;;76.17;32.80;;;;;;;11.05;73.49;98107.56;8346879;28;20235;-65
2022/02/22 18:56:01;;;;;;;34.70;12.43;;;;;;;11.44;63.15;98107.53;8347122;28;20231;-65
2022/02/22 19:00:08;;;;;;;20.17;7.13;;;;;;;11.94;61.04;98106.09;8347280;28;20228;-66
2022/02/22 19:04:11;;;;;;;13.20;5.40;;;;;;;11.30;54.92;98113.31;8314664;28;20229;-67
2022/02/22 19:08:14;;;;;;;14.47;4.50;;;;;;;10.50;56.10;98105.56;8314237;28;20240;-67